sensor_id;sensor_type;location;lat;lon;timestamp;temperature;humidity
51853;DHT22;37894;53.172;6.598;2023-05-14T00:00:27;11.30;99.90
51853;DHT22;37894;53.172;6.598;2023-05-14T00:02:53;10.70;99.90
51853;DHT22;37894;53.172;6.598;2023-05-14T00:05:19;10.80;99.90
51853;DHT22;37894;53.172;6.598;2023-05-14T00:07:44;11.80;99.90
51853;DHT22;37894;53.172;6.598;2023-05-14T00:10:10;11.50;99.90
51853;DHT22;37894;53.172;6.598;2023-05-14T00:15:02;11.30;99.90
51853;DHT22;37894;53.172;6.598;2023-05-14T00:17:28;11.70;99.90
51853;DHT22;37894;53.172;6.598;2023-05-14T00:24:45;11.80;99.90
51853;DHT22;37894;53.172;6.598;2023-05-14T00:27:11;11.80;99.90
51853;DHT22;37894;53.172;6.598;2023-05-14T00:29:37;11.70;99.90
51853;DHT22;37894;53.172;6.598;2023-05-14T00:39:21;11.10;99.90
51853;DHT22;37894;53.172;6.598;2023-05-14T00:41:46;11.30;99.90
51853;DHT22;37894;53.172;6.598;2023-05-14T00:44:12;11.20;99.90
51853;DHT22;37894;53.172;6.598;2023-05-14T00:46:38;11.20;99.90
51853;DHT22;37894;53.172;6.598;2023-05-14T00:51:30;11.30;99.90
51853;DHT22;37894;53.172;6.598;2023-05-14T01:03:41;11.40;99.90
51853;DHT22;37894;53.172;6.598;2023-05-14T01:12:15;11.10;99.90
51853;DHT22;37894;53.172;6.598;2023-05-14T01:17:28;11.00;99.90
51853;DHT22;37894;53.172;6.598;2023-05-14T01:19:54;10.40;99.90
51853;DHT22;37894;53.172;6.598;2023-05-14T01:27:30;10.90;99.90
51853;DHT22;37894;53.172;6.598;2023-05-14T01:30:25;10.60;99.90
51853;DHT22;37894;53.172;6.598;2023-05-14T01:32:51;10.40;99.90
51853;DHT22;37894;53.172;6.598;2023-05-14T01:35:19;10.90;99.90
51853;DHT22;37894;53.172;6.598;2023-05-14T01:37:47;10.90;99.90
51853;DHT22;37894;53.172;6.598;2023-05-14T01:40:14;10.90;99.90
51853;DHT22;37894;53.172;6.598;2023-05-14T01:42:40;11.20;99.90
51853;DHT22;37894;53.172;6.598;2023-05-14T01:45:07;11.10;99.90
51853;DHT22;37894;53.172;6.598;2023-05-14T01:47:33;11.30;99.90
51853;DHT22;37894;53.172;6.598;2023-05-14T01:49:58;10.20;99.90
51853;DHT22;37894;53.172;6.598;2023-05-14T01:54:50;10.80;99.90
51853;DHT22;37894;53.172;6.598;2023-05-14T01:57:16;11.10;99.90
51853;DHT22;37894;53.172;6.598;2023-05-14T02:07:00;10.40;99.90
51853;DHT22;37894;53.172;6.598;2023-05-14T02:09:25;10.90;99.90
51853;DHT22;37894;53.172;6.598;2023-05-14T02:11:51;10.80;99.90
51853;DHT22;37894;53.172;6.598;2023-05-14T02:16:43;11.00;99.90
51853;DHT22;37894;53.172;6.598;2023-05-14T02:19:08;10.50;99.90
51853;DHT22;37894;53.172;6.598;2023-05-14T02:21:34;10.80;99.90
51853;DHT22;37894;53.172;6.598;2023-05-14T02:24:00;10.40;99.90
51853;DHT22;37894;53.172;6.598;2023-05-14T02:26:25;10.50;99.90
51853;DHT22;37894;53.172;6.598;2023-05-14T02:28:51;10.40;99.90
51853;DHT22;37894;53.172;6.598;2023-05-14T02:31:17;10.60;99.90
51853;DHT22;37894;53.172;6.598;2023-05-14T02:33:44;10.20;99.90
51853;DHT22;37894;53.172;6.598;2023-05-14T02:36:09;10.70;99.90
51853;DHT22;37894;53.172;6.598;2023-05-14T02:38:35;10.60;99.90
51853;DHT22;37894;53.172;6.598;2023-05-14T02:41:01;10.70;99.90
51853;DHT22;37894;53.172;6.598;2023-05-14T02:43:26;11.00;99.90
51853;DHT22;37894;53.172;6.598;2023-05-14T02:45:52;10.70;99.90
51853;DHT22;37894;53.172;6.598;2023-05-14T02:48:18;10.40;99.90
51853;DHT22;37894;53.172;6.598;2023-05-14T02:50:43;10.50;99.90
51853;DHT22;37894;53.172;6.598;2023-05-14T02:53:09;10.00;99.90
51853;DHT22;37894;53.172;6.598;2023-05-14T02:55:35;10.60;99.90
51853;DHT22;37894;53.172;6.598;2023-05-14T02:58:01;9.90;99.90
51853;DHT22;37894;53.172;6.598;2023-05-14T03:02:52;10.30;99.90
51853;DHT22;37894;53.172;6.598;2023-05-14T03:05:18;10.20;99.90
51853;DHT22;37894;53.172;6.598;2023-05-14T03:07:44;10.50;99.90
51853;DHT22;37894;53.172;6.598;2023-05-14T03:10:10;9.90;99.90
51853;DHT22;37894;53.172;6.598;2023-05-14T03:12:36;10.50;99.90
51853;DHT22;37894;53.172;6.598;2023-05-14T03:15:02;10.10;99.90
51853;DHT22;37894;53.172;6.598;2023-05-14T03:17:28;10.20;99.90
51853;DHT22;37894;53.172;6.598;2023-05-14T03:19:54;11.50;99.90
51853;DHT22;37894;53.172;6.598;2023-05-14T03:24:45;10.70;99.90
51853;DHT22;37894;53.172;6.598;2023-05-14T03:29:37;10.20;99.90
51853;DHT22;37894;53.172;6.598;2023-05-14T03:32:03;10.20;99.90
51853;DHT22;37894;53.172;6.598;2023-05-14T03:34:29;10.70;99.90
51853;DHT22;37894;53.172;6.598;2023-05-14T03:36:54;9.60;99.90
51853;DHT22;37894;53.172;6.598;2023-05-14T03:39:20;9.80;99.90
51853;DHT22;37894;53.172;6.598;2023-05-14T03:41:47;10.20;99.90
51853;DHT22;37894;53.172;6.598;2023-05-14T03:44:13;10.20;99.90
51853;DHT22;37894;53.172;6.598;2023-05-14T03:49:05;9.60;99.90
51853;DHT22;37894;53.172;6.598;2023-05-14T04:01:16;10.50;99.90
51853;DHT22;37894;53.172;6.598;2023-05-14T04:03:42;10.60;99.90
51853;DHT22;37894;53.172;6.598;2023-05-14T04:06:08;10.40;99.90
51853;DHT22;37894;53.172;6.598;2023-05-14T04:08:33;10.30;99.90
51853;DHT22;37894;53.172;6.598;2023-05-14T04:10:59;10.20;99.90
51853;DHT22;37894;53.172;6.598;2023-05-14T04:13:25;10.00;99.90
51853;DHT22;37894;53.172;6.598;2023-05-14T04:15:50;9.50;99.90
51853;DHT22;37894;53.172;6.598;2023-05-14T04:20:42;10.00;99.90
51853;DHT22;37894;53.172;6.598;2023-05-14T04:23:08;10.30;99.90
51853;DHT22;37894;53.172;6.598;2023-05-14T04:25:34;10.30;99.90
51853;DHT22;37894;53.172;6.598;2023-05-14T04:27:59;10.20;99.90
51853;DHT22;37894;53.172;6.598;2023-05-14T04:30:25;10.40;99.90
51853;DHT22;37894;53.172;6.598;2023-05-14T04:32:51;10.40;99.90
51853;DHT22;37894;53.172;6.598;2023-05-14T04:35:17;10.50;99.90
51853;DHT22;37894;53.172;6.598;2023-05-14T04:37:42;10.50;99.90
51853;DHT22;37894;53.172;6.598;2023-05-14T04:40:09;10.60;99.90
51853;DHT22;37894;53.172;6.598;2023-05-14T04:45:05;10.50;99.90
51853;DHT22;37894;53.172;6.598;2023-05-14T04:47:31;10.70;99.90
51853;DHT22;37894;53.172;6.598;2023-05-14T04:49:57;10.70;99.90
51853;DHT22;37894;53.172;6.598;2023-05-14T04:52:23;10.40;99.90
51853;DHT22;37894;53.172;6.598;2023-05-14T04:54:49;10.90;99.90
51853;DHT22;37894;53.172;6.598;2023-05-14T04:57:15;10.30;99.90
51853;DHT22;37894;53.172;6.598;2023-05-14T04:59:41;11.50;99.90
51853;DHT22;37894;53.172;6.598;2023-05-14T05:02:07;11.30;99.90
51853;DHT22;37894;53.172;6.598;2023-05-14T05:04:32;10.70;99.90
51853;DHT22;37894;53.172;6.598;2023-05-14T05:06:58;11.20;99.90
51853;DHT22;37894;53.172;6.598;2023-05-14T05:09:24;10.80;99.90
51853;DHT22;37894;53.172;6.598;2023-05-14T05:16:42;11.60;99.90
51853;DHT22;37894;53.172;6.598;2023-05-14T05:19:08;10.30;99.90
51853;DHT22;37894;53.172;6.598;2023-05-14T05:21:34;11.00;99.90
51853;DHT22;37894;53.172;6.598;2023-05-14T05:23:59;11.20;99.90
51853;DHT22;37894;53.172;6.598;2023-05-14T05:26:25;11.50;99.90
51853;DHT22;37894;53.172;6.598;2023-05-14T05:28:51;11.40;99.90
51853;DHT22;37894;53.172;6.598;2023-05-14T05:36:09;11.60;99.90
51853;DHT22;37894;53.172;6.598;2023-05-14T05:38:35;12.30;99.90
51853;DHT22;37894;53.172;6.598;2023-05-14T05:43:27;11.20;99.90
51853;DHT22;37894;53.172;6.598;2023-05-14T05:45:53;11.90;99.90
51853;DHT22;37894;53.172;6.598;2023-05-14T05:48:19;12.20;99.90
51853;DHT22;37894;53.172;6.598;2023-05-14T05:50:46;12.10;99.90
51853;DHT22;37894;53.172;6.598;2023-05-14T05:53:13;11.70;99.90
51853;DHT22;37894;53.172;6.598;2023-05-14T05:55:41;12.10;99.90
51853;DHT22;37894;53.172;6.598;2023-05-14T05:58:07;12.70;99.90
51853;DHT22;37894;53.172;6.598;2023-05-14T06:00:32;12.50;99.90
51853;DHT22;37894;53.172;6.598;2023-05-14T06:02:58;12.40;99.90
51853;DHT22;37894;53.172;6.598;2023-05-14T06:05:24;13.00;99.90
51853;DHT22;37894;53.172;6.598;2023-05-14T06:07:50;13.10;99.90
51853;DHT22;37894;53.172;6.598;2023-05-14T06:12:43;13.20;99.90
51853;DHT22;37894;53.172;6.598;2023-05-14T06:15:09;13.40;99.90
51853;DHT22;37894;53.172;6.598;2023-05-14T06:17:37;13.20;99.90
51853;DHT22;37894;53.172;6.598;2023-05-14T06:20:03;12.60;99.90
51853;DHT22;37894;53.172;6.598;2023-05-14T06:22:32;14.10;99.90
51853;DHT22;37894;53.172;6.598;2023-05-14T06:27:24;13.30;99.90
51853;DHT22;37894;53.172;6.598;2023-05-14T06:29:50;14.40;99.90
51853;DHT22;37894;53.172;6.598;2023-05-14T06:34:42;13.00;99.90
51853;DHT22;37894;53.172;6.598;2023-05-14T06:37:09;13.80;99.90
51853;DHT22;37894;53.172;6.598;2023-05-14T06:39:36;14.60;99.90
51853;DHT22;37894;53.172;6.598;2023-05-14T06:42:02;15.00;99.90
51853;DHT22;37894;53.172;6.598;2023-05-14T06:44:28;14.00;99.90
51853;DHT22;37894;53.172;6.598;2023-05-14T06:51:46;14.30;99.90
51853;DHT22;37894;53.172;6.598;2023-05-14T06:54:11;14.50;99.90
51853;DHT22;37894;53.172;6.598;2023-05-14T06:56:37;14.30;99.90
51853;DHT22;37894;53.172;6.598;2023-05-14T07:01:29;14.70;99.90
51853;DHT22;37894;53.172;6.598;2023-05-14T07:03:55;14.60;99.90
51853;DHT22;37894;53.172;6.598;2023-05-14T07:06:21;14.70;99.90
51853;DHT22;37894;53.172;6.598;2023-05-14T07:08:47;14.90;99.90
51853;DHT22;37894;53.172;6.598;2023-05-14T07:11:13;15.20;99.90
51853;DHT22;37894;53.172;6.598;2023-05-14T07:13:39;15.10;99.90
51853;DHT22;37894;53.172;6.598;2023-05-14T07:16:06;15.30;99.90
51853;DHT22;37894;53.172;6.598;2023-05-14T07:18:34;15.30;99.90
51853;DHT22;37894;53.172;6.598;2023-05-14T07:21:00;15.50;99.90
51853;DHT22;37894;53.172;6.598;2023-05-14T07:23:26;15.60;99.90
51853;DHT22;37894;53.172;6.598;2023-05-14T07:25:51;15.60;99.90
51853;DHT22;37894;53.172;6.598;2023-05-14T07:28:17;15.80;99.90
51853;DHT22;37894;53.172;6.598;2023-05-14T07:30:43;15.90;99.90
51853;DHT22;37894;53.172;6.598;2023-05-14T07:33:08;16.00;99.90
51853;DHT22;37894;53.172;6.598;2023-05-14T07:35:34;17.00;99.90
51853;DHT22;37894;53.172;6.598;2023-05-14T07:38:00;16.20;99.90
51853;DHT22;37894;53.172;6.598;2023-05-14T07:40:25;16.10;99.90
51853;DHT22;37894;53.172;6.598;2023-05-14T07:42:51;16.10;99.90
51853;DHT22;37894;53.172;6.598;2023-05-14T07:45:17;17.00;99.90
51853;DHT22;37894;53.172;6.598;2023-05-14T07:47:43;16.20;99.90
51853;DHT22;37894;53.172;6.598;2023-05-14T07:50:09;15.10;99.90
51853;DHT22;37894;53.172;6.598;2023-05-14T07:52:35;16.20;99.90
51853;DHT22;37894;53.172;6.598;2023-05-14T07:55:02;16.20;99.90
51853;DHT22;37894;53.172;6.598;2023-05-14T07:57:28;16.20;99.90
51853;DHT22;37894;53.172;6.598;2023-05-14T07:59:55;16.30;99.90
51853;DHT22;37894;53.172;6.598;2023-05-14T08:02:21;16.40;99.90
51853;DHT22;37894;53.172;6.598;2023-05-14T08:04:47;16.30;99.90
51853;DHT22;37894;53.172;6.598;2023-05-14T08:07:12;16.40;99.90
51853;DHT22;37894;53.172;6.598;2023-05-14T08:09:38;16.50;99.90
51853;DHT22;37894;53.172;6.598;2023-05-14T08:12:04;16.60;99.90
51853;DHT22;37894;53.172;6.598;2023-05-14T08:14:30;17.90;99.90
51853;DHT22;37894;53.172;6.598;2023-05-14T08:16:56;16.70;99.90
51853;DHT22;37894;53.172;6.598;2023-05-14T08:19:22;17.00;99.90
51853;DHT22;37894;53.172;6.598;2023-05-14T08:21:49;17.00;99.90
51853;DHT22;37894;53.172;6.598;2023-05-14T08:24:14;17.10;99.90
51853;DHT22;37894;53.172;6.598;2023-05-14T08:26:40;17.10;99.90
51853;DHT22;37894;53.172;6.598;2023-05-14T08:29:06;16.90;99.90
51853;DHT22;37894;53.172;6.598;2023-05-14T08:31:31;17.20;99.90
51853;DHT22;37894;53.172;6.598;2023-05-14T08:33:57;17.30;99.90
51853;DHT22;37894;53.172;6.598;2023-05-14T08:36:23;17.30;99.90
51853;DHT22;37894;53.172;6.598;2023-05-14T08:38:48;17.90;99.90
51853;DHT22;37894;53.172;6.598;2023-05-14T08:41:15;17.60;99.90
51853;DHT22;37894;53.172;6.598;2023-05-14T08:43:59;17.80;99.90
51853;DHT22;37894;53.172;6.598;2023-05-14T08:46:29;17.70;99.90
51853;DHT22;37894;53.172;6.598;2023-05-14T08:49:01;17.80;99.90
51853;DHT22;37894;53.172;6.598;2023-05-14T08:51:29;18.30;99.90
51853;DHT22;37894;53.172;6.598;2023-05-14T08:53:58;17.90;99.90
51853;DHT22;37894;53.172;6.598;2023-05-14T08:56:26;18.10;99.90
51853;DHT22;37894;53.172;6.598;2023-05-14T08:58:53;18.10;99.90
51853;DHT22;37894;53.172;6.598;2023-05-14T09:01:18;18.10;99.90
51853;DHT22;37894;53.172;6.598;2023-05-14T09:03:45;18.00;99.90
51853;DHT22;37894;53.172;6.598;2023-05-14T09:06:12;18.20;99.90
51853;DHT22;37894;53.172;6.598;2023-05-14T09:08:38;18.40;99.90
51853;DHT22;37894;53.172;6.598;2023-05-14T09:11:04;18.40;99.90
51853;DHT22;37894;53.172;6.598;2023-05-14T09:13:30;18.40;99.90
51853;DHT22;37894;53.172;6.598;2023-05-14T09:15:56;18.60;99.90
51853;DHT22;37894;53.172;6.598;2023-05-14T09:18:23;18.60;99.90
51853;DHT22;37894;53.172;6.598;2023-05-14T09:20:50;18.60;99.90
51853;DHT22;37894;53.172;6.598;2023-05-14T09:23:16;18.60;99.90
51853;DHT22;37894;53.172;6.598;2023-05-14T09:25:42;18.50;99.90
51853;DHT22;37894;53.172;6.598;2023-05-14T09:28:08;18.50;99.90
51853;DHT22;37894;53.172;6.598;2023-05-14T09:30:34;18.60;99.90
51853;DHT22;37894;53.172;6.598;2023-05-14T09:33:01;19.50;99.90
51853;DHT22;37894;53.172;6.598;2023-05-14T09:35:28;18.90;99.90
51853;DHT22;37894;53.172;6.598;2023-05-14T09:37:54;19.10;99.90
51853;DHT22;37894;53.172;6.598;2023-05-14T09:40:21;19.10;99.90
51853;DHT22;37894;53.172;6.598;2023-05-14T09:42:47;19.30;99.90
51853;DHT22;37894;53.172;6.598;2023-05-14T09:45:14;19.40;99.90
51853;DHT22;37894;53.172;6.598;2023-05-14T09:47:41;19.50;99.90
51853;DHT22;37894;53.172;6.598;2023-05-14T09:50:07;19.70;99.90
51853;DHT22;37894;53.172;6.598;2023-05-14T09:52:33;19.80;99.90
51853;DHT22;37894;53.172;6.598;2023-05-14T09:54:59;19.90;99.90
51853;DHT22;37894;53.172;6.598;2023-05-14T09:57:26;20.10;99.90
51853;DHT22;37894;53.172;6.598;2023-05-14T09:59:52;20.20;99.90
51853;DHT22;37894;53.172;6.598;2023-05-14T10:02:28;20.30;99.90
51853;DHT22;37894;53.172;6.598;2023-05-14T10:04:58;20.40;99.90
51853;DHT22;37894;53.172;6.598;2023-05-14T10:07:32;20.50;99.90
51853;DHT22;37894;53.172;6.598;2023-05-14T10:10:02;21.90;99.90
51853;DHT22;37894;53.172;6.598;2023-05-14T10:12:31;20.70;99.90
51853;DHT22;37894;53.172;6.598;2023-05-14T10:15:02;20.90;99.90
51853;DHT22;37894;53.172;6.598;2023-05-14T10:17:30;21.00;99.90
51853;DHT22;37894;53.172;6.598;2023-05-14T10:19:58;21.20;99.90
51853;DHT22;37894;53.172;6.598;2023-05-14T10:22:30;21.30;99.90
51853;DHT22;37894;53.172;6.598;2023-05-14T10:24:58;21.40;99.90
51853;DHT22;37894;53.172;6.598;2023-05-14T10:27:24;21.50;99.90
51853;DHT22;37894;53.172;6.598;2023-05-14T10:29:52;21.50;99.90
51853;DHT22;37894;53.172;6.598;2023-05-14T10:32:20;21.60;99.90
51853;DHT22;37894;53.172;6.598;2023-05-14T10:34:46;21.80;99.90
51853;DHT22;37894;53.172;6.598;2023-05-14T10:37:26;21.80;99.90
51853;DHT22;37894;53.172;6.598;2023-05-14T10:39:53;21.80;99.90
51853;DHT22;37894;53.172;6.598;2023-05-14T10:42:24;21.70;99.90
51853;DHT22;37894;53.172;6.598;2023-05-14T10:45:01;21.70;99.90
51853;DHT22;37894;53.172;6.598;2023-05-14T10:47:34;21.70;99.90
51853;DHT22;37894;53.172;6.598;2023-05-14T10:50:08;21.70;99.90
51853;DHT22;37894;53.172;6.598;2023-05-14T10:52:35;21.90;99.90
51853;DHT22;37894;53.172;6.598;2023-05-14T10:55:05;21.80;99.90
51853;DHT22;37894;53.172;6.598;2023-05-14T10:57:36;21.90;99.90
51853;DHT22;37894;53.172;6.598;2023-05-14T11:00:02;22.20;99.90
51853;DHT22;37894;53.172;6.598;2023-05-14T11:02:36;22.10;99.90
51853;DHT22;37894;53.172;6.598;2023-05-14T11:05:04;22.30;99.90
51853;DHT22;37894;53.172;6.598;2023-05-14T11:07:33;22.40;99.90
51853;DHT22;37894;53.172;6.598;2023-05-14T11:10:13;22.60;99.90
51853;DHT22;37894;53.172;6.598;2023-05-14T11:12:41;22.70;99.90
51853;DHT22;37894;53.172;6.598;2023-05-14T11:15:09;22.70;99.90
51853;DHT22;37894;53.172;6.598;2023-05-14T11:17:36;22.60;99.40
51853;DHT22;37894;53.172;6.598;2023-05-14T11:20:02;22.60;99.80
51853;DHT22;37894;53.172;6.598;2023-05-14T11:22:30;22.70;99.50
51853;DHT22;37894;53.172;6.598;2023-05-14T11:24:55;22.80;99.10
51853;DHT22;37894;53.172;6.598;2023-05-14T11:27:22;23.00;99.30
51853;DHT22;37894;53.172;6.598;2023-05-14T11:29:48;23.20;99.10
51853;DHT22;37894;53.172;6.598;2023-05-14T11:32:15;23.40;98.90
51853;DHT22;37894;53.172;6.598;2023-05-14T11:34:42;23.40;95.90
51853;DHT22;37894;53.172;6.598;2023-05-14T11:37:13;23.30;92.40
51853;DHT22;37894;53.172;6.598;2023-05-14T11:39:48;23.20;90.50
51853;DHT22;37894;53.172;6.598;2023-05-14T11:42:15;23.30;86.50
51853;DHT22;37894;53.172;6.598;2023-05-14T11:44:47;23.30;83.50
51853;DHT22;37894;53.172;6.598;2023-05-14T11:47:14;23.40;81.40
51853;DHT22;37894;53.172;6.598;2023-05-14T11:49:40;23.40;80.10
51853;DHT22;37894;53.172;6.598;2023-05-14T11:52:08;23.40;78.40
51853;DHT22;37894;53.172;6.598;2023-05-14T11:54:39;23.40;78.90
51853;DHT22;37894;53.172;6.598;2023-05-14T11:59:35;23.60;74.40
51853;DHT22;37894;53.172;6.598;2023-05-14T12:02:02;23.70;76.00
51853;DHT22;37894;53.172;6.598;2023-05-14T12:04:29;23.90;76.50
51853;DHT22;37894;53.172;6.598;2023-05-14T12:06:58;24.10;77.30
51853;DHT22;37894;53.172;6.598;2023-05-14T12:09:23;24.20;78.10
51853;DHT22;37894;53.172;6.598;2023-05-14T12:11:50;24.30;79.00
51853;DHT22;37894;53.172;6.598;2023-05-14T12:14:21;24.40;76.80
51853;DHT22;37894;53.172;6.598;2023-05-14T12:16:48;24.50;73.20
51853;DHT22;37894;53.172;6.598;2023-05-14T12:19:15;24.50;72.80
51853;DHT22;37894;53.172;6.598;2023-05-14T12:21:42;24.50;71.00
51853;DHT22;37894;53.172;6.598;2023-05-14T12:24:12;24.40;71.60
51853;DHT22;37894;53.172;6.598;2023-05-14T12:26:39;24.40;72.60
51853;DHT22;37894;53.172;6.598;2023-05-14T12:29:12;24.40;72.10
51853;DHT22;37894;53.172;6.598;2023-05-14T12:31:47;24.50;71.30
51853;DHT22;37894;53.172;6.598;2023-05-14T12:34:13;24.40;70.70
51853;DHT22;37894;53.172;6.598;2023-05-14T12:36:39;23.60;68.60
51853;DHT22;37894;53.172;6.598;2023-05-14T12:39:05;24.40;69.60
51853;DHT22;37894;53.172;6.598;2023-05-14T12:41:31;24.40;70.50
51853;DHT22;37894;53.172;6.598;2023-05-14T12:43:58;24.40;70.30
51853;DHT22;37894;53.172;6.598;2023-05-14T12:46:25;24.50;70.20
51853;DHT22;37894;53.172;6.598;2023-05-14T12:48:55;24.40;68.50
51853;DHT22;37894;53.172;6.598;2023-05-14T12:51:21;24.30;69.70
51853;DHT22;37894;53.172;6.598;2023-05-14T12:53:47;24.40;70.30
51853;DHT22;37894;53.172;6.598;2023-05-14T12:56:13;24.40;69.80
51853;DHT22;37894;53.172;6.598;2023-05-14T12:58:39;24.50;69.50
51853;DHT22;37894;53.172;6.598;2023-05-14T13:01:05;24.50;69.40
51853;DHT22;37894;53.172;6.598;2023-05-14T13:03:31;24.40;69.40
51853;DHT22;37894;53.172;6.598;2023-05-14T13:05:57;24.30;68.40
51853;DHT22;37894;53.172;6.598;2023-05-14T13:08:24;24.40;69.00
51853;DHT22;37894;53.172;6.598;2023-05-14T13:10:53;24.40;69.50
51853;DHT22;37894;53.172;6.598;2023-05-14T13:13:19;24.50;69.00
51853;DHT22;37894;53.172;6.598;2023-05-14T13:15:45;24.70;67.90
51853;DHT22;37894;53.172;6.598;2023-05-14T13:18:16;24.80;67.80
51853;DHT22;37894;53.172;6.598;2023-05-14T13:20:41;24.80;67.80
51853;DHT22;37894;53.172;6.598;2023-05-14T13:23:07;24.80;67.30
51853;DHT22;37894;53.172;6.598;2023-05-14T13:25:34;24.80;66.30
51853;DHT22;37894;53.172;6.598;2023-05-14T13:27:59;24.80;65.40
51853;DHT22;37894;53.172;6.598;2023-05-14T13:30:25;24.60;66.00
51853;DHT22;37894;53.172;6.598;2023-05-14T13:32:51;24.40;66.20
51853;DHT22;37894;53.172;6.598;2023-05-14T13:35:17;24.30;66.00
51853;DHT22;37894;53.172;6.598;2023-05-14T13:37:43;24.40;66.40
51853;DHT22;37894;53.172;6.598;2023-05-14T13:40:09;24.40;67.40
51853;DHT22;37894;53.172;6.598;2023-05-14T13:42:35;24.40;68.60
51853;DHT22;37894;53.172;6.598;2023-05-14T13:45:01;24.50;68.50
51853;DHT22;37894;53.172;6.598;2023-05-14T13:47:27;24.40;67.70
51853;DHT22;37894;53.172;6.598;2023-05-14T13:49:53;24.30;66.70
51853;DHT22;37894;53.172;6.598;2023-05-14T13:52:19;24.20;66.20
51853;DHT22;37894;53.172;6.598;2023-05-14T13:54:46;24.20;66.10
51853;DHT22;37894;53.172;6.598;2023-05-14T13:57:12;23.90;66.60
51853;DHT22;37894;53.172;6.598;2023-05-14T13:59:37;23.80;67.10
51853;DHT22;37894;53.172;6.598;2023-05-14T14:02:04;23.80;68.10
51853;DHT22;37894;53.172;6.598;2023-05-14T14:04:30;23.80;68.60
51853;DHT22;37894;53.172;6.598;2023-05-14T14:06:56;23.80;71.50
51853;DHT22;37894;53.172;6.598;2023-05-14T14:09:22;23.80;73.60
51853;DHT22;37894;53.172;6.598;2023-05-14T14:11:48;23.90;74.30
51853;DHT22;37894;53.172;6.598;2023-05-14T14:14:14;23.80;76.20
51853;DHT22;37894;53.172;6.598;2023-05-14T14:16:40;23.90;77.40
51853;DHT22;37894;53.172;6.598;2023-05-14T14:19:06;23.90;78.30
51853;DHT22;37894;53.172;6.598;2023-05-14T14:21:32;23.90;77.20
51853;DHT22;37894;53.172;6.598;2023-05-14T14:24:00;23.80;76.90
51853;DHT22;37894;53.172;6.598;2023-05-14T14:26:26;23.90;78.70
51853;DHT22;37894;53.172;6.598;2023-05-14T14:28:52;24.00;78.10
51853;DHT22;37894;53.172;6.598;2023-05-14T14:31:19;23.90;78.80
51853;DHT22;37894;53.172;6.598;2023-05-14T14:33:44;23.90;79.50
51853;DHT22;37894;53.172;6.598;2023-05-14T14:36:10;23.90;79.30
51853;DHT22;37894;53.172;6.598;2023-05-14T14:38:36;23.90;78.80
51853;DHT22;37894;53.172;6.598;2023-05-14T14:41:03;22.90;80.90
51853;DHT22;37894;53.172;6.598;2023-05-14T14:43:31;23.70;80.10
51853;DHT22;37894;53.172;6.598;2023-05-14T14:45:57;23.70;81.80
51853;DHT22;37894;53.172;6.598;2023-05-14T14:48:28;23.50;79.80
51853;DHT22;37894;53.172;6.598;2023-05-14T14:50:56;23.50;78.60
51853;DHT22;37894;53.172;6.598;2023-05-14T14:53:23;22.90;82.80
51853;DHT22;37894;53.172;6.598;2023-05-14T14:55:49;23.20;80.50
51853;DHT22;37894;53.172;6.598;2023-05-14T14:58:16;23.30;84.70
51853;DHT22;37894;53.172;6.598;2023-05-14T15:00:42;23.20;81.70
51853;DHT22;37894;53.172;6.598;2023-05-14T15:03:08;23.20;80.40
51853;DHT22;37894;53.172;6.598;2023-05-14T15:05:35;23.10;79.90
51853;DHT22;37894;53.172;6.598;2023-05-14T15:08:00;22.30;86.30
51853;DHT22;37894;53.172;6.598;2023-05-14T15:10:27;23.00;83.40
51853;DHT22;37894;53.172;6.598;2023-05-14T15:12:55;23.10;83.70
51853;DHT22;37894;53.172;6.598;2023-05-14T15:15:21;23.10;85.40
51853;DHT22;37894;53.172;6.598;2023-05-14T15:17:48;23.10;86.30
51853;DHT22;37894;53.172;6.598;2023-05-14T15:20:13;24.20;90.90
51853;DHT22;37894;53.172;6.598;2023-05-14T15:22:39;23.10;88.00
51853;DHT22;37894;53.172;6.598;2023-05-14T15:25:05;23.10;87.00
51853;DHT22;37894;53.172;6.598;2023-05-14T15:27:31;23.10;85.80
51853;DHT22;37894;53.172;6.598;2023-05-14T15:29:56;23.00;85.50
51853;DHT22;37894;53.172;6.598;2023-05-14T15:32:23;23.00;86.50
51853;DHT22;37894;53.172;6.598;2023-05-14T15:34:50;23.00;86.80
51853;DHT22;37894;53.172;6.598;2023-05-14T15:37:16;22.90;87.00
51853;DHT22;37894;53.172;6.598;2023-05-14T15:39:42;22.90;88.10
51853;DHT22;37894;53.172;6.598;2023-05-14T15:42:08;22.80;88.90
51853;DHT22;37894;53.172;6.598;2023-05-14T15:44:33;22.90;90.60
51853;DHT22;37894;53.172;6.598;2023-05-14T15:46:59;24.20;89.50
51853;DHT22;37894;53.172;6.598;2023-05-14T15:49:25;22.70;91.30
51853;DHT22;37894;53.172;6.598;2023-05-14T15:51:51;22.60;91.50
51853;DHT22;37894;53.172;6.598;2023-05-14T15:54:16;23.00;92.20
51853;DHT22;37894;53.172;6.598;2023-05-14T15:56:42;22.70;90.70
51853;DHT22;37894;53.172;6.598;2023-05-14T15:59:08;22.60;91.30
51853;DHT22;37894;53.172;6.598;2023-05-14T16:01:34;22.40;94.20
51853;DHT22;37894;53.172;6.598;2023-05-14T16:03:59;22.50;95.80
51853;DHT22;37894;53.172;6.598;2023-05-14T16:06:25;22.50;94.40
51853;DHT22;37894;53.172;6.598;2023-05-14T16:08:50;22.50;94.50
51853;DHT22;37894;53.172;6.598;2023-05-14T16:11:17;22.20;97.60
51853;DHT22;37894;53.172;6.598;2023-05-14T16:13:43;22.40;97.30
51853;DHT22;37894;53.172;6.598;2023-05-14T16:16:08;21.80;98.40
51853;DHT22;37894;53.172;6.598;2023-05-14T16:18:35;22.10;98.20
51853;DHT22;37894;53.172;6.598;2023-05-14T16:21:00;22.10;98.60
51853;DHT22;37894;53.172;6.598;2023-05-14T16:23:26;22.10;97.60
51853;DHT22;37894;53.172;6.598;2023-05-14T16:25:52;22.00;97.80
51853;DHT22;37894;53.172;6.598;2023-05-14T16:28:18;22.80;98.90
51853;DHT22;37894;53.172;6.598;2023-05-14T16:30:43;20.90;97.80
51853;DHT22;37894;53.172;6.598;2023-05-14T16:33:09;21.20;99.60
51853;DHT22;37894;53.172;6.598;2023-05-14T16:35:35;21.10;99.50
51853;DHT22;37894;53.172;6.598;2023-05-14T16:38:00;21.70;99.00
51853;DHT22;37894;53.172;6.598;2023-05-14T16:40:26;21.30;98.60
51853;DHT22;37894;53.172;6.598;2023-05-14T16:42:52;21.40;99.90
51853;DHT22;37894;53.172;6.598;2023-05-14T16:45:18;20.80;99.30
51853;DHT22;37894;53.172;6.598;2023-05-14T16:47:43;20.80;99.70
51853;DHT22;37894;53.172;6.598;2023-05-14T16:50:09;20.80;99.90
51853;DHT22;37894;53.172;6.598;2023-05-14T16:52:35;21.20;99.90
51853;DHT22;37894;53.172;6.598;2023-05-14T16:55:01;20.30;99.90
51853;DHT22;37894;53.172;6.598;2023-05-14T16:57:26;20.50;99.90
51853;DHT22;37894;53.172;6.598;2023-05-14T16:59:52;19.80;99.90
51853;DHT22;37894;53.172;6.598;2023-05-14T17:02:18;20.10;98.70
51853;DHT22;37894;53.172;6.598;2023-05-14T17:04:43;20.00;99.60
51853;DHT22;37894;53.172;6.598;2023-05-14T17:07:10;20.50;99.70
51853;DHT22;37894;53.172;6.598;2023-05-14T17:09:36;19.70;99.00
51853;DHT22;37894;53.172;6.598;2023-05-14T17:12:02;19.20;99.30